Time;durP1;ratioP1;P1;durP2;ratioP2;P2;SDS_P1;SDS_P2;PMS_P1;PMS_P2;Temp;Humidity;BMP_temperature;BMP_pressure;BME280_temperature;BME280_humidity;BME280_pressure;Samples;Min_cycle;Max_cycle;Signal;HPM_P1;HPM_P2
2023/08/18 00:01:17;;;;;;;6.28;4.47;;;;;;;19.76;82.17;98302.72;5041330;28;20044;-83
2023/08/18 00:12:05;;;;;;;6.22;4.75;;;;;;;19.85;81.89;98317.31;5067549;28;20056;-82
2023/08/18 00:14:35;;;;;;;6.25;4.93;;;;;;;19.91;81.90;98337.97;5047623;28;20037;-80
2023/08/18 00:17:00;;;;;;;5.93;4.80;;;;;;;19.64;82.03;98302.38;5020506;28;20599;-81
2023/08/18 00:19:27;;;;;;;8.63;4.38;;;;;;;19.75;81.94;98323.78;5006437;28;20034;-82
2023/08/18 00:21:53;;;;;;;5.80;4.45;;;;;;;19.56;81.92;98290.22;5027012;28;20534;-82
2023/08/18 00:24:28;;;;;;;6.65;4.72;;;;;;;19.79;81.82;98329.47;5027490;28;20484;-81
2023/08/18 00:27:00;;;;;;;5.60;4.65;;;;;;;19.36;81.99;98270.63;5019552;28;20034;-81
2023/08/18 00:30:55;;;;;;;5.05;4.10;;;;;;;19.92;81.78;98367.75;5016894;28;20569;-81
2023/08/18 00:33:48;;;;;;;6.25;4.70;;;;;;;19.23;81.77;98261.25;5011336;28;20048;-81
2023/08/18 00:37:24;;;;;;;6.32;4.50;;;;;;;19.47;81.57;98313.06;4992806;28;20174;-81
2023/08/18 00:43:47;;;;;;;5.70;4.25;;;;;;;19.11;81.94;98258.97;5017294;28;20553;-81
2023/08/18 00:46:15;;;;;;;11.77;5.05;;;;;;;19.56;81.58;98336.66;5000592;28;20515;-82
2023/08/18 00:48:42;;;;;;;6.30;4.50;;;;;;;19.79;82.00;98365.78;5019652;28;20025;-81
2023/08/18 00:51:08;;;;;;;6.70;4.40;;;;;;;19.70;81.66;98347.63;5008080;28;20033;-82
2023/08/18 00:53:39;;;;;;;4.40;3.90;;;;;;;19.46;81.93;98327.84;5005720;28;20048;-80
2023/08/18 00:56:17;;;;;;;6.72;4.22;;;;;;;19.58;82.24;98360.97;5046076;28;20145;-80
2023/08/18 00:59:30;;;;;;;4.65;4.07;;;;;;;19.39;81.70;98352.00;5046383;28;20044;-79
2023/08/18 01:02:29;;;;;;;6.50;4.63;;;;;;;19.23;82.48;98327.59;5032959;28;20041;-80
2023/08/18 01:05:51;;;;;;;7.05;4.90;;;;;;;19.40;82.17;98354.41;5046972;28;20124;-79
2023/08/18 01:08:28;;;;;;;7.63;4.80;;;;;;;19.11;82.78;98302.66;5012682;28;20042;-80
2023/08/18 01:11:38;;;;;;;7.57;4.30;;;;;;;19.35;82.40;98334.56;5005835;28;20056;-80
2023/08/18 01:15:01;;;;;;;5.32;4.63;;;;;;;19.28;82.40;98324.81;5033120;28;20049;-78
2023/08/18 01:18:14;;;;;;;6.55;4.65;;;;;;;19.51;82.21;98349.63;5012489;28;20037;-80
2023/08/18 01:21:14;;;;;;;6.90;4.93;;;;;;;19.35;82.36;98309.97;5014028;28;20401;-78
2023/08/18 01:23:45;;;;;;;5.38;4.82;;;;;;;19.57;82.27;98332.03;5011505;28;20491;-77
2023/08/18 01:26:14;;;;;;;5.47;4.80;;;;;;;19.67;82.46;98342.78;5028957;28;20039;-79
2023/08/18 01:28:43;;;;;;;6.28;5.43;;;;;;;19.40;82.26;98298.97;4983029;28;20478;-77
2023/08/18 01:35:24;;;;;;;5.90;4.60;;;;;;;19.33;82.34;98297.41;6013786;22;20034;-81
2023/08/18 01:41:29;;;;;;;7.13;5.63;;;;;;;19.36;82.35;98295.22;5023137;28;20037;-81
2023/08/18 01:44:05;;;;;;;6.10;4.82;;;;;;;19.50;82.54;98326.13;5042839;28;20044;-78
2023/08/18 01:46:35;;;;;;;5.43;4.90;;;;;;;19.28;82.20;98278.38;4999256;28;20042;-79
2023/08/18 01:49:02;;;;;;;6.97;5.75;;;;;;;19.18;82.53;98280.47;5010224;28;20145;-81
2023/08/18 01:51:29;;;;;;;6.85;5.70;;;;;;;19.04;82.39;98269.47;5023232;28;20312;-79
2023/08/18 01:54:01;;;;;;;7.07;5.78;;;;;;;18.99;82.90;98280.50;5005745;28;20068;-78
2023/08/18 02:01:26;;;;;;;5.85;5.35;;;;;;;18.99;83.13;98310.53;5063916;28;20051;-81
2023/08/18 02:04:08;;;;;;;6.82;5.18;;;;;;;18.55;83.39;98239.94;5043316;28;20124;-78
2023/08/18 02:06:44;;;;;;;7.93;4.50;;;;;;;19.15;83.12;98331.03;5030987;28;20066;-81
2023/08/18 02:09:09;;;;;;;8.27;5.03;;;;;;;19.09;82.92;98317.75;5041492;28;20037;-79
2023/08/18 02:26:12;;;;;;;7.22;5.45;;;;;;;18.38;82.76;98227.88;5024975;28;20049;-81
2023/08/18 02:33:42;;;;;;;;;;;;;;;;;;;;;
2023/08/18 02:37:32;;;;;;;;;;;;;;;;;;;;;
2023/08/18 02:41:20;;;;;;;6.90;6.20;;;;;;;18.90;82.54;98338.78;5037918;28;20096;-84
2023/08/18 02:44:25;;;;;;;6.13;5.45;;;;;;;18.12;83.00;98230.13;5046408;28;20063;-78
2023/08/18 02:47:23;;;;;;;7.53;4.65;;;;;;;18.57;82.21;98291.47;5030629;28;20057;-77
2023/08/18 02:50:03;;;;;;;7.38;4.75;;;;;;;18.40;82.91;98269.31;5043032;28;20139;-80
2023/08/18 02:53:21;;;;;;;5.53;4.43;;;;;;;18.26;82.35;98257.50;5059335;28;20511;-78
2023/08/18 02:56:08;;;;;;;;;;;;;;;18.55;83.19;98329.16;5030455;28;20047;-78
2023/08/18 02:58:42;;;;;;;7.40;5.78;;;;;;;18.63;82.89;98312.13;5030888;28;19919;-79
2023/08/18 03:01:08;;;;;;;8.13;6.93;;;;;;;18.25;83.02;98272.25;5018475;28;20040;-77
2023/08/18 03:03:34;;;;;;;10.85;6.20;;;;;;;18.35;83.47;98283.00;5024518;28;20550;-79
2023/08/18 03:06:01;;;;;;;9.82;6.45;;;;;;;18.34;83.33;98275.94;5012741;28;20063;-78
2023/08/18 03:08:27;;;;;;;8.27;5.38;;;;;;;18.30;83.34;98269.44;5009931;28;20499;-78
2023/08/18 03:11:04;;;;;;;6.72;5.22;;;;;;;18.18;83.12;98250.75;5017786;28;20062;-80
2023/08/18 03:13:34;;;;;;;6.72;5.28;;;;;;;18.11;82.95;98257.69;5022786;28;20045;-77
2023/08/18 03:16:00;;;;;;;8.45;6.43;;;;;;;18.34;83.67;98322.28;5001484;28;20641;-78
2023/08/18 03:18:34;;;;;;;16.50;8.65;;;;;;;18.06;85.10;98320.44;5032680;28;20045;-80
2023/08/18 03:21:30;;;;;;;10.05;5.63;;;;;;;17.55;83.86;98228.34;5034202;28;20478;-81
2023/08/18 03:24:02;;;;;;;6.25;5.63;;;;;;;18.00;84.23;98280.69;5016002;28;20473;-80
2023/08/18 03:26:47;;;;;;;6.47;5.82;;;;;;;18.19;84.08;98298.75;5043257;28;20040;-81
2023/08/18 03:39:34;;;;;;;6.50;5.88;;;;;;;17.94;84.30;98231.72;5061290;28;20071;-80
2023/08/18 03:42:22;;;;;;;5.70;5.20;;;;;;;18.52;83.83;98324.28;5049404;28;20036;-79
2023/08/18 03:46:07;;;;;;;6.30;5.68;;;;;;;18.38;83.48;98312.41;5010073;28;20052;-80
2023/08/18 03:48:37;;;;;;;6.90;5.53;;;;;;;18.31;83.65;98293.69;5005486;28;20065;-81
2023/08/18 03:51:23;;;;;;;6.68;5.82;;;;;;;18.60;83.80;98339.97;4977435;28;20073;-79
2023/08/18 03:54:09;;;;;;;8.90;5.40;;;;;;;18.08;83.55;98239.19;5002727;28;20026;-78
2023/08/18 03:56:51;;;;;;;11.40;5.03;;;;;;;18.52;83.50;98325.09;4962599;28;20046;-79
2023/08/18 03:59:27;;;;;;;7.28;5.45;;;;;;;18.53;83.81;98314.97;4993847;28;20046;-78
2023/08/18 04:02:20;;;;;;;9.50;6.38;;;;;;;18.54;83.84;98325.59;4991170;28;20043;-80
2023/08/18 04:05:21;;;;;;;6.55;5.90;;;;;;;18.03;84.20;98263.78;4985542;28;20057;-77
2023/08/18 04:07:54;;;;;;;10.65;7.93;;;;;;;17.97;84.53;98286.75;4992487;28;20045;-76
2023/08/18 04:10:29;;;;;;;7.38;5.05;;;;;;;18.35;83.98;98322.00;4998163;28;20046;-82
2023/08/18 04:13:20;;;;;;;7.85;5.47;;;;;;;18.10;84.04;98275.13;4994694;28;20170;-81
2023/08/18 04:16:23;;;;;;;6.28;5.57;;;;;;;18.42;83.66;98317.00;5021894;28;20112;-80
2023/08/18 04:18:54;;;;;;;8.02;6.53;;;;;;;18.30;84.01;98313.06;5030748;28;20041;-77
2023/08/18 04:21:21;;;;;;;7.97;5.80;;;;;;;18.25;83.90;98322.09;4998369;28;20035;-78
2023/08/18 04:23:47;;;;;;;7.70;6.38;;;;;;;18.17;83.96;98302.88;4990684;28;20445;-77
2023/08/18 04:26:14;;;;;;;11.48;8.75;;;;;;;18.22;83.99;98313.72;5013890;28;20025;-78
2023/08/18 04:28:40;;;;;;;10.32;7.57;;;;;;;18.37;83.81;98341.59;5001346;28;20534;-81
2023/08/18 04:31:06;;;;;;;9.60;7.20;;;;;;;18.37;83.59;98340.78;5010721;28;20116;-80
2023/08/18 04:33:48;;;;;;;9.60;7.03;;;;;;;18.29;83.77;98319.63;5006875;28;20119;-78
2023/08/18 04:36:14;;;;;;;8.32;5.82;;;;;;;18.46;83.69;98350.00;5034614;28;20116;-82
2023/08/18 04:38:47;;;;;;;7.60;5.80;;;;;;;18.24;83.88;98314.22;5009386;28;20123;-82
2023/08/18 04:41:21;;;;;;;6.35;5.60;;;;;;;18.48;83.92;98345.06;5034134;28;20033;-78
2023/08/18 04:48:07;;;;;;;6.43;5.00;;;;;;;18.05;83.87;98272.47;5040806;28;20199;-79
2023/08/18 04:50:35;;;;;;;6.10;5.45;;;;;;;17.90;83.83;98257.91;5005748;28;20120;-78
2023/08/18 04:53:01;;;;;;;7.50;5.40;;;;;;;18.04;83.97;98270.88;4995400;28;20045;-79
2023/08/18 04:55:26;;;;;;;9.07;5.63;;;;;;;18.28;83.92;98310.63;5012205;28;20109;-77
2023/08/18 04:57:52;;;;;;;8.85;5.80;;;;;;;18.26;83.64;98287.47;5006494;28;20082;-78
2023/08/18 05:00:17;;;;;;;7.10;5.57;;;;;;;18.63;83.84;98350.31;5005657;28;20385;-80
2023/08/18 05:02:43;;;;;;;7.35;5.85;;;;;;;18.63;83.90;98356.59;4998754;28;20026;-80
2023/08/18 05:05:31;;;;;;;7.00;5.07;;;;;;;18.76;83.84;98360.53;4995923;28;20098;-79
2023/08/18 05:07:56;;;;;;;7.47;5.40;;;;;;;18.78;83.99;98352.84;5018362;28;20281;-79
2023/08/18 05:10:21;;;;;;;5.97;5.38;;;;;;;18.66;83.61;98327.09;4999196;28;20552;-77
2023/08/18 05:12:47;;;;;;;7.55;4.88;;;;;;;18.89;84.06;98357.06;4993263;28;20033;-76
2023/08/18 05:15:32;;;;;;;5.45;4.78;;;;;;;18.91;83.72;98351.31;5006262;28;20430;-81
2023/08/18 05:17:59;;;;;;;7.05;6.25;;;;;;;18.94;83.89;98345.25;5031340;28;20135;-79
2023/08/18 05:20:25;;;;;;;13.23;5.75;;;;;;;18.99;83.86;98340.56;5018897;28;20122;-79
2023/08/18 05:22:51;;;;;;;7.38;5.70;;;;;;;18.65;83.92;98282.63;5033498;28;20403;-79
2023/08/18 05:25:17;;;;;;;7.25;5.32;;;;;;;19.04;83.72;98345.91;4996007;28;20481;-79
2023/08/18 05:27:42;;;;;;;8.70;6.03;;;;;;;19.20;83.99;98352.81;4991188;28;20042;-75
2023/08/18 05:30:08;;;;;;;9.18;6.30;;;;;;;19.11;83.37;98332.69;5044709;28;20033;-78
2023/08/18 05:32:34;;;;;;;8.52;5.68;;;;;;;19.10;83.83;98328.38;5011591;28;20547;-78
2023/08/18 05:35:03;;;;;;;7.00;6.13;;;;;;;19.11;83.86;98319.06;5005541;28;20083;-78
2023/08/18 05:37:28;;;;;;;7.25;5.68;;;;;;;19.18;83.45;98332.34;4992007;28;20590;-79
2023/08/18 05:39:54;;;;;;;6.63;5.68;;;;;;;19.29;83.32;98336.53;4991281;28;20044;-79
2023/08/18 05:42:19;;;;;;;6.95;5.78;;;;;;;19.35;83.64;98334.56;5018900;28;20035;-79
2023/08/18 05:44:45;;;;;;;8.85;6.40;;;;;;;19.43;83.39;98342.09;4992622;28;20033;-80
2023/08/18 05:47:10;;;;;;;7.93;5.80;;;;;;;19.26;83.22;98320.75;5002516;28;20032;-78
2023/08/18 05:49:35;;;;;;;6.07;5.47;;;;;;;19.45;83.13;98348.06;5018554;28;20051;-79
2023/08/18 05:52:01;;;;;;;6.13;5.43;;;;;;;19.39;82.71;98330.16;5006853;28;20518;-79
2023/08/18 05:54:26;;;;;;;6.97;5.70;;;;;;;19.58;83.12;98347.31;4987587;28;20414;-78
2023/08/18 05:56:52;;;;;;;7.57;5.75;;;;;;;19.70;82.63;98358.56;5007208;28;20045;-79
2023/08/18 05:59:17;;;;;;;7.90;5.25;;;;;;;19.72;82.63;98348.94;5011602;28;20021;-79
2023/08/18 06:01:43;;;;;;;8.52;5.60;;;;;;;19.75;82.50;98339.34;4990129;28;20102;-79
2023/08/18 06:04:08;;;;;;;5.97;5.00;;;;;;;19.77;82.69;98348.06;4999977;28;20043;-78
2023/08/18 06:06:35;;;;;;;8.32;5.50;;;;;;;19.89;82.44;98356.59;5009610;28;20063;-78
2023/08/18 06:09:01;;;;;;;9.57;5.68;;;;;;;19.96;82.63;98351.53;5005560;28;20024;-78
2023/08/18 06:11:27;;;;;;;6.70;4.95;;;;;;;19.96;82.48;98329.66;5022917;28;20033;-78
2023/08/18 06:13:52;;;;;;;5.38;4.82;;;;;;;20.19;82.52;98361.50;5011341;28;20067;-78
2023/08/18 06:16:17;;;;;;;7.70;5.18;;;;;;;20.24;82.22;98347.75;5007989;28;20411;-79
2023/08/18 06:18:43;;;;;;;5.53;5.00;;;;;;;20.26;82.02;98361.94;5014690;28;20021;-78
2023/08/18 06:21:08;;;;;;;5.43;4.70;;;;;;;20.21;81.75;98348.31;4997884;28;20473;-78
2023/08/18 06:23:34;;;;;;;5.00;4.40;;;;;;;20.32;81.97;98349.00;5006803;28;20047;-79
2023/08/18 06:25:59;;;;;;;6.30;4.55;;;;;;;20.39;81.36;98344.75;5025531;28;20555;-80
2023/08/18 06:28:25;;;;;;;6.25;4.78;;;;;;;20.57;81.17;98365.72;4996183;28;20025;-76
2023/08/18 06:30:51;;;;;;;8.18;5.30;;;;;;;20.56;80.98;98363.28;5026743;28;20044;-79
2023/08/18 06:33:16;;;;;;;6.47;4.78;;;;;;;20.60;80.97;98365.09;5005833;28;20021;-79
2023/08/18 06:35:42;;;;;;;5.65;5.15;;;;;;;20.62;80.74;98360.13;5015453;28;20396;-77
2023/08/18 06:38:07;;;;;;;4.90;4.40;;;;;;;20.79;80.61;98369.66;5018449;28;20102;-77
2023/08/18 06:40:32;;;;;;;5.65;4.97;;;;;;;20.60;80.43;98343.22;5003078;28;20040;-78
2023/08/18 06:42:58;;;;;;;7.15;5.15;;;;;;;20.60;80.46;98335.00;4999925;28;20053;-79
2023/08/18 06:45:23;;;;;;;6.82;5.43;;;;;;;20.81;80.92;98356.47;5017528;28;20667;-79
2023/08/18 06:47:48;;;;;;;5.88;5.35;;;;;;;20.88;80.79;98351.38;5019202;28;20037;-80
2023/08/18 06:50:14;;;;;;;6.28;5.40;;;;;;;20.90;80.49;98354.63;5035817;28;20047;-80
2023/08/18 06:52:39;;;;;;;5.50;5.00;;;;;;;20.86;80.38;98340.75;5016607;28;20538;-79
2023/08/18 06:55:05;;;;;;;6.10;5.50;;;;;;;21.02;80.27;98352.16;5008492;28;20116;-80
2023/08/18 06:57:30;;;;;;;6.05;5.45;;;;;;;20.98;80.48;98345.69;4999604;28;20017;-80
2023/08/18 06:59:56;;;;;;;6.43;5.82;;;;;;;20.89;80.93;98331.06;5024859;28;20071;-79
2023/08/18 07:02:22;;;;;;;7.05;5.00;;;;;;;20.92;80.67;98303.09;5028285;28;20040;-80
2023/08/18 07:04:47;;;;;;;5.32;4.82;;;;;;;21.28;80.90;98355.97;5009737;28;20028;-80
2023/08/18 07:07:12;;;;;;;7.45;4.90;;;;;;;21.43;80.76;98363.00;5005666;28;20021;-80
2023/08/18 07:09:38;;;;;;;7.30;4.70;;;;;;;21.46;80.32;98363.22;4992265;28;20065;-80
2023/08/18 07:12:04;;;;;;;7.05;4.78;;;;;;;21.59;80.32;98362.31;5012419;28;20025;-80
2023/08/18 07:14:29;;;;;;;5.90;4.60;;;;;;;21.63;80.43;98346.91;4992631;28;20033;-79
2023/08/18 07:16:55;;;;;;;6.05;4.93;;;;;;;21.76;80.15;98367.94;4988845;28;20029;-80
2023/08/18 07:19:20;;;;;;;6.70;4.90;;;;;;;21.79;80.72;98361.03;4999082;28;20033;-82
2023/08/18 07:21:46;;;;;;;7.10;4.78;;;;;;;21.83;80.58;98332.66;4998749;28;20071;-80
2023/08/18 07:24:11;;;;;;;7.80;5.28;;;;;;;22.07;80.29;98361.69;5025231;28;20079;-80
2023/08/18 07:26:37;;;;;;;4.80;4.40;;;;;;;22.23;80.01;98376.63;5006451;28;20100;-83
2023/08/18 07:29:04;;;;;;;7.32;4.93;;;;;;;22.17;79.39;98344.97;5010087;28;20415;-83
2023/08/18 07:31:30;;;;;;;6.20;4.70;;;;;;;22.32;78.81;98358.25;5000457;28;20022;-80
2023/08/18 07:33:56;;;;;;;4.93;4.50;;;;;;;22.28;78.19;98360.84;5012100;28;20438;-79
2023/08/18 07:36:21;;;;;;;5.60;4.55;;;;;;;22.39;78.01;98370.41;5025512;28;20113;-83
2023/08/18 07:38:46;;;;;;;5.47;4.95;;;;;;;22.31;78.00;98342.94;5011947;28;20041;-83
2023/08/18 07:41:12;;;;;;;6.65;4.70;;;;;;;22.55;77.37;98370.78;5002185;28;20047;-82
2023/08/18 07:43:37;;;;;;;7.03;4.43;;;;;;;22.47;76.88;98349.63;5021521;28;20107;-81
2023/08/18 07:46:03;;;;;;;6.60;4.45;;;;;;;22.58;76.63;98349.00;5034633;28;20034;-80
2023/08/18 07:48:28;;;;;;;6.57;4.40;;;;;;;22.72;77.24;98368.13;5021057;28;20037;-81
2023/08/18 07:50:55;;;;;;;6.80;4.28;;;;;;;22.87;76.74;98358.66;5020384;28;20088;-80
2023/08/18 07:53:20;;;;;;;8.65;4.25;;;;;;;22.89;76.25;98356.38;5013930;28;20514;-80
2023/08/18 07:55:46;;;;;;;6.30;4.20;;;;;;;23.02;76.00;98350.75;5024401;28;20018;-80
2023/08/18 07:58:12;;;;;;;5.05;4.15;;;;;;;23.07;75.76;98347.03;4995939;28;20699;-80
2023/08/18 08:00:37;;;;;;;4.93;3.90;;;;;;;23.19;75.63;98361.75;5017457;28;20024;-80
2023/08/18 08:03:03;;;;;;;5.07;4.57;;;;;;;23.29;75.17;98366.91;5029559;28;20041;-79
2023/08/18 08:05:28;;;;;;;5.28;4.20;;;;;;;23.27;74.24;98341.69;5015124;28;20032;-80
2023/08/18 08:07:53;;;;;;;6.28;4.10;;;;;;;23.47;74.39;98372.47;5010421;28;20666;-79
2023/08/18 08:10:19;;;;;;;6.28;4.28;;;;;;;23.65;74.04;98371.31;4991040;28;20519;-80
2023/08/18 08:12:45;;;;;;;3.72;3.40;;;;;;;23.72;73.92;98368.88;5001132;28;20105;-81
2023/08/18 08:15:13;;;;;;;4.22;3.55;;;;;;;23.86;73.66;98377.75;5035965;28;20021;-79
2023/08/18 08:17:38;;;;;;;5.47;3.75;;;;;;;23.83;72.31;98370.16;4996289;28;20093;-81
2023/08/18 08:20:10;;;;;;;4.20;3.80;;;;;;;24.04;71.89;98382.09;4998500;28;20029;-80
2023/08/18 08:22:37;;;;;;;4.28;3.88;;;;;;;23.95;72.19;98370.28;5011814;28;20040;-80
2023/08/18 08:25:02;;;;;;;5.78;3.65;;;;;;;23.98;71.60;98372.41;5007680;28;20025;-82
2023/08/18 08:27:28;;;;;;;5.70;4.05;;;;;;;23.84;71.84;98352.53;5011273;28;20476;-81
2023/08/18 08:29:53;;;;;;;5.82;3.70;;;;;;;24.02;71.32;98365.09;5013858;28;20053;-80
2023/08/18 08:32:19;;;;;;;5.78;3.45;;;;;;;24.18;71.56;98382.72;5011121;28;20048;-82
2023/08/18 08:34:49;;;;;;;4.03;3.63;;;;;;;24.25;70.69;98383.03;5007449;28;20032;-81
2023/08/18 08:37:14;;;;;;;4.40;3.83;;;;;;;24.29;69.89;98383.19;5011467;28;20037;-80
2023/08/18 08:39:40;;;;;;;5.30;3.50;;;;;;;24.23;70.03;98357.78;5012810;28;20025;-82
2023/08/18 08:42:05;;;;;;;6.07;3.63;;;;;;;24.41;69.23;98378.59;5010941;28;20087;-83
2023/08/18 08:44:31;;;;;;;5.18;3.60;;;;;;;24.36;68.94;98340.25;5004577;28;20033;-83
2023/08/18 08:47:00;;;;;;;4.00;3.70;;;;;;;24.53;67.66;98334.66;5025918;28;20033;-83
2023/08/18 08:49:27;;;;;;;3.58;3.20;;;;;;;24.78;67.56;98367.94;5013497;28;20064;-81
2023/08/18 08:51:55;;;;;;;4.28;3.30;;;;;;;24.79;67.29;98359.34;5011781;28;20068;-78
2023/08/18 08:54:21;;;;;;;3.80;3.50;;;;;;;24.82;66.44;98355.13;5007474;28;20395;-80
2023/08/18 08:56:47;;;;;;;3.97;3.42;;;;;;;25.02;67.07;98368.13;5010622;28;20064;-79
2023/08/18 08:59:15;;;;;;;7.07;3.20;;;;;;;25.10;67.06;98353.47;4998839;28;20025;-80
2023/08/18 09:01:41;;;;;;;4.38;3.20;;;;;;;25.31;66.67;98368.88;4996679;28;20032;-83
2023/08/18 09:04:09;;;;;;;5.53;3.47;;;;;;;25.39;65.66;98368.00;5007914;28;20074;-83
2023/08/18 09:06:35;;;;;;;3.10;2.90;;;;;;;25.45;64.59;98374.16;5026904;28;20033;-81
2023/08/18 09:09:01;;;;;;;3.60;2.97;;;;;;;25.47;63.03;98357.25;5006220;28;20089;-82
2023/08/18 09:11:45;;;;;;;3.60;3.05;;;;;;;25.59;63.05;98355.38;5001601;28;20124;-80
2023/08/18 09:14:10;;;;;;;3.20;2.90;;;;;;;25.73;64.12;98355.91;5024709;28;20044;-77
2023/08/18 09:16:38;;;;;;;3.40;2.85;;;;;;;25.59;60.24;98341.59;5017882;28;20025;-82
2023/08/18 09:19:31;;;;;;;3.33;2.90;;;;;;;25.56;59.80;98327.66;5014212;28;20105;-81
2023/08/18 09:22:02;;;;;;;3.45;2.90;;;;;;;25.67;60.73;98354.47;5015577;28;20064;-80
2023/08/18 09:24:30;;;;;;;3.17;2.70;;;;;;;25.53;60.63;98318.13;5034335;28;20132;-79
2023/08/18 09:27:18;;;;;;;3.20;2.90;;;;;;;25.93;60.60;98362.50;4999171;28;20032;-82
2023/08/18 09:30:04;;;;;;;3.42;3.13;;;;;;;25.98;60.93;98363.09;5016078;28;20041;-83
2023/08/18 09:32:31;;;;;;;5.03;2.90;;;;;;;25.99;61.04;98348.16;4996285;28;20036;-80
2023/08/18 09:34:56;;;;;;;3.15;2.88;;;;;;;26.12;60.78;98340.72;4990965;28;20029;-78
2023/08/18 09:37:29;;;;;;;3.47;3.00;;;;;;;26.34;63.21;98345.84;5043217;28;20644;-80
2023/08/18 09:39:54;;;;;;;3.63;3.33;;;;;;;26.32;62.80;98350.09;5022335;28;20403;-81
2023/08/18 09:42:19;;;;;;;4.35;3.35;;;;;;;26.41;62.63;98357.13;5036154;28;20039;-81
2023/08/18 09:44:45;;;;;;;3.53;3.22;;;;;;;26.33;62.43;98343.41;5022787;28;20048;-81
2023/08/18 09:47:12;;;;;;;4.10;3.70;;;;;;;26.45;62.18;98333.19;5018210;28;20159;-82
2023/08/18 09:49:39;;;;;;;4.57;3.28;;;;;;;26.47;62.18;98324.53;5013409;28;20048;-80
2023/08/18 09:52:06;;;;;;;4.60;3.58;;;;;;;26.59;58.84;98344.72;5012245;28;20021;-82
2023/08/18 09:54:49;;;;;;;3.92;2.97;;;;;;;26.39;58.13;98303.38;5006448;28;20072;-82
2023/08/18 09:57:53;;;;;;;3.85;3.25;;;;;;;26.67;59.21;98345.75;5021676;28;20037;-83
2023/08/18 10:00:19;;;;;;;4.30;3.20;;;;;;;26.62;56.67;98332.16;5008653;28;20099;-82
2023/08/18 10:03:22;;;;;;;3.05;2.80;;;;;;;26.71;55.50;98344.72;5000315;28;20422;-83
2023/08/18 10:06:36;;;;;;;2.83;2.53;;;;;;;26.87;55.41;98336.53;5022594;28;20068;-84
2023/08/18 10:09:02;;;;;;;3.22;2.92;;;;;;;26.80;56.32;98321.69;5012946;28;20033;-81
2023/08/18 10:11:27;;;;;;;3.70;2.97;;;;;;;26.96;55.57;98337.22;4995361;28;20224;-81
2023/08/18 10:13:53;;;;;;;3.60;2.60;;;;;;;26.97;53.20;98329.75;5003500;28;20040;-82
2023/08/18 10:16:19;;;;;;;2.95;2.47;;;;;;;27.11;54.25;98317.16;5000042;28;20029;-83
2023/08/18 10:18:54;;;;;;;2.95;2.70;;;;;;;27.27;53.46;98309.72;5002283;28;20072;-85
2023/08/18 10:21:19;;;;;;;4.00;2.80;;;;;;;27.38;54.93;98310.88;4996873;28;20041;-83
2023/08/18 10:23:46;;;;;;;3.95;2.80;;;;;;;27.44;56.33;98318.94;5001917;28;20025;-80
2023/08/18 10:26:14;;;;;;;3.47;3.10;;;;;;;27.39;54.59;98318.03;4996701;28;20033;-81
2023/08/18 10:28:40;;;;;;;3.13;2.83;;;;;;;27.51;53.57;98311.66;5006643;28;20071;-84
2023/08/18 10:31:10;;;;;;;4.47;3.60;;;;;;;27.56;56.31;98300.31;5022741;28;20499;-83
2023/08/18 10:33:43;;;;;;;5.88;3.53;;;;;;;27.63;55.67;98299.72;4995644;28;20104;-84
2023/08/18 10:36:29;;;;;;;3.40;2.92;;;;;;;27.67;55.31;98295.06;5013244;28;20574;-81
2023/08/18 10:38:56;;;;;;;3.75;3.00;;;;;;;27.42;53.78;98239.06;5030170;28;20391;-84
2023/08/18 10:42:00;;;;;;;5.50;2.80;;;;;;;27.99;53.76;98302.31;5006052;28;20021;-83
2023/08/18 10:44:26;;;;;;;3.58;2.92;;;;;;;28.02;52.12;98273.91;5005692;28;20033;-80
2023/08/18 10:46:51;;;;;;;2.83;2.63;;;;;;;28.29;52.61;98289.63;4994134;28;20526;-80
2023/08/18 10:49:16;;;;;;;2.67;2.45;;;;;;;28.37;52.39;98291.41;5029426;28;20049;-82
2023/08/18 10:51:42;;;;;;;3.45;2.50;;;;;;;28.68;51.86;98296.94;4992935;28;20116;-82
2023/08/18 10:54:07;;;;;;;2.70;2.50;;;;;;;28.81;50.64;98282.97;4989638;28;20033;-81
2023/08/18 10:56:32;;;;;;;3.40;2.88;;;;;;;28.95;51.05;98288.84;4993971;28;20072;-83
2023/08/18 10:58:58;;;;;;;3.78;2.65;;;;;;;29.07;50.25;98289.53;5013252;28;20561;-83
2023/08/18 11:01:23;;;;;;;2.53;2.30;;;;;;;29.27;47.98;98301.44;4992992;28;20025;-82
2023/08/18 11:03:49;;;;;;;3.05;2.42;;;;;;;29.27;46.30;98293.94;5007271;28;20045;-84
2023/08/18 11:06:14;;;;;;;3.97;2.42;;;;;;;29.31;47.48;98296.81;5013851;28;20026;-84
2023/08/18 11:08:40;;;;;;;3.63;2.40;;;;;;;29.29;47.96;98276.94;5017670;28;20032;-83
2023/08/18 11:11:05;;;;;;;3.92;2.50;;;;;;;29.58;47.77;98295.75;5012568;28;20116;-84
2023/08/18 11:13:31;;;;;;;3.78;2.33;;;;;;;29.74;46.64;98298.44;5026145;28;20403;-83
2023/08/18 11:15:56;;;;;;;2.40;2.20;;;;;;;29.88;45.38;98294.00;4998260;28;20407;-84
2023/08/18 11:18:22;;;;;;;2.53;2.20;;;;;;;29.94;44.71;98284.19;5015236;28;20471;-82
2023/08/18 11:20:48;;;;;;;2.67;2.47;;;;;;;29.87;46.40;98266.59;5015543;28;20024;-84
2023/08/18 11:23:14;;;;;;;2.60;2.40;;;;;;;29.78;46.07;98222.38;5025398;28;20033;-81
2023/08/18 11:25:39;;;;;;;2.55;2.33;;;;;;;30.27;45.95;98299.47;5031976;28;20037;-84
2023/08/18 11:28:05;;;;;;;2.40;2.20;;;;;;;30.42;45.33;98295.75;5017153;28;20040;-84
2023/08/18 11:30:31;;;;;;;3.60;2.20;;;;;;;30.45;43.30;98297.81;4994688;28;20047;-84
2023/08/18 11:32:57;;;;;;;2.88;2.20;;;;;;;30.47;44.03;98287.09;5009462;28;20123;-83
2023/08/18 11:35:24;;;;;;;2.60;1.98;;;;;;;30.64;44.58;98269.91;5036030;28;20491;-81
2023/08/18 11:37:51;;;;;;;2.50;2.30;;;;;;;30.75;43.86;98282.00;5010924;28;20047;-83
2023/08/18 11:40:18;;;;;;;2.90;2.30;;;;;;;30.80;43.46;98284.44;5015188;28;20091;-82
2023/08/18 11:42:46;;;;;;;2.15;1.95;;;;;;;30.67;42.94;98269.13;5032620;28;20040;-82
2023/08/18 11:45:15;;;;;;;3.20;2.33;;;;;;;30.80;41.07;98272.53;5011524;28;20112;-83
2023/08/18 11:47:41;;;;;;;2.40;2.20;;;;;;;30.57;41.59;98237.22;4992911;28;20037;-82
2023/08/18 11:50:09;;;;;;;2.30;2.10;;;;;;;30.65;41.78;98244.50;5004772;28;20017;-83
2023/08/18 11:52:43;;;;;;;2.55;2.35;;;;;;;30.70;41.59;98232.25;5009329;28;20072;-83
2023/08/18 11:55:11;;;;;;;2.60;2.40;;;;;;;30.98;42.23;98274.41;5011159;28;20450;-82
2023/08/18 11:57:40;;;;;;;2.65;2.08;;;;;;;30.84;41.12;98235.22;5014427;28;20026;-82
2023/08/18 12:00:48;;;;;;;2.75;2.53;;;;;;;31.26;41.49;98258.09;4985557;28;20112;-83
2023/08/18 12:03:34;;;;;;;3.08;2.00;;;;;;;31.42;41.65;98272.63;5002151;28;20137;-83
2023/08/18 12:06:00;;;;;;;2.22;2.03;;;;;;;31.60;39.36;98266.47;5030801;28;20100;-82
2023/08/18 12:08:26;;;;;;;2.17;2.00;;;;;;;31.64;39.85;98245.03;5014571;28;20032;-81
2023/08/18 12:10:53;;;;;;;3.00;2.13;;;;;;;31.51;41.51;98218.63;5008417;28;20491;-84
2023/08/18 12:13:19;;;;;;;2.55;2.35;;;;;;;31.78;40.38;98262.69;5001469;28;20137;-78
2023/08/18 12:15:45;;;;;;;2.70;2.30;;;;;;;31.90;41.44;98248.47;5029162;28;20021;-81
2023/08/18 12:18:12;;;;;;;2.45;2.25;;;;;;;32.11;41.00;98253.50;5014208;28;20406;-82
2023/08/18 12:20:38;;;;;;;3.25;2.20;;;;;;;32.08;40.32;98243.09;5007618;28;20065;-82
2023/08/18 12:23:04;;;;;;;6.30;2.30;;;;;;;32.19;40.04;98255.13;5006752;28;20039;-81
2023/08/18 12:25:30;;;;;;;2.60;2.40;;;;;;;32.33;40.33;98249.69;5013449;28;20077;-83
2023/08/18 12:27:55;;;;;;;3.25;2.42;;;;;;;32.43;40.18;98262.09;5014731;28;20091;-81
2023/08/18 12:30:21;;;;;;;3.00;2.80;;;;;;;32.19;39.79;98221.69;5029810;28;20021;-83
2023/08/18 12:32:49;;;;;;;5.00;3.20;;;;;;;32.30;39.31;98244.09;5013440;28;20128;-82
2023/08/18 12:35:14;;;;;;;2.97;2.38;;;;;;;32.23;39.36;98250.38;5007026;28;20498;-83
2023/08/18 12:37:40;;;;;;;2.55;2.35;;;;;;;32.22;39.08;98248.81;5007319;28;20033;-83
2023/08/18 12:40:06;;;;;;;3.08;2.53;;;;;;;32.28;39.98;98218.59;5020291;28;20059;-83
2023/08/18 12:42:32;;;;;;;4.68;2.20;;;;;;;32.54;39.26;98241.50;5000632;28;20052;-83
2023/08/18 12:44:57;;;;;;;3.30;2.58;;;;;;;32.74;38.93;98242.81;5012693;28;20021;-81
2023/08/18 12:47:23;;;;;;;2.47;2.30;;;;;;;32.57;37.44;98209.25;4997275;28;20036;-83
2023/08/18 12:49:49;;;;;;;2.55;2.35;;;;;;;32.87;38.20;98242.50;5007288;28;20028;-83
2023/08/18 12:52:14;;;;;;;2.90;2.50;;;;;;;32.66;37.37;98213.31;5017227;28;20040;-83
2023/08/18 12:54:40;;;;;;;2.83;2.60;;;;;;;33.15;38.84;98231.50;4996993;28;20021;-82
2023/08/18 12:57:06;;;;;;;4.63;2.50;;;;;;;33.23;38.48;98238.75;5030608;28;20033;-81
2023/08/18 12:59:31;;;;;;;2.70;2.47;;;;;;;33.33;37.13;98229.59;4991005;28;20025;-82